Mito, Japan
Current Conditions -  °F | °C
As of 7:00 PM on Thursday 29 Jan 2015 (Local Time) from RJAH Reporting Station
Broken Clouds Broken Clouds  
Wind Chill: 37°   Ceiling: 16000
Heat Index: 37°   Visibility: 6mi
Dew Point: 21°   Wind: 2mph
Humidity: 52%   Direction: 110°ESE
Pressure: 30.3"   Gusts: NA
Location:  36.38°N, 140.47°E
Report Text: RJAH 291000Z 11002KT 9999 FEW030 BKN160 03/M06 Q1026
Loading
Personal Weather Stations






























Interactive Weather Map New forecast layout! Learn more

10-Day Weather Forecast

Advertisements
Track Severe Weather on mobile